sensor_id;sensor_type;location;lat;lon;timestamp;temperature;humidity
20512;DHT22;10414;52.074;5.126;2023-07-29T00:00:46;19.40;99.90
20512;DHT22;10414;52.074;5.126;2023-07-29T00:03:13;19.20;99.90
20512;DHT22;10414;52.074;5.126;2023-07-29T00:05:43;19.30;99.90
20512;DHT22;10414;52.074;5.126;2023-07-29T00:08:11;19.40;99.90
20512;DHT22;10414;52.074;5.126;2023-07-29T00:10:38;19.70;99.90
20512;DHT22;10414;52.074;5.126;2023-07-29T00:13:05;19.90;99.90
20512;DHT22;10414;52.074;5.126;2023-07-29T00:15:35;19.90;99.90
20512;DHT22;10414;52.074;5.126;2023-07-29T00:18:01;19.60;99.90
20512;DHT22;10414;52.074;5.126;2023-07-29T00:20:28;19.80;99.90
20512;DHT22;10414;52.074;5.126;2023-07-29T00:23:00;20.00;99.90
20512;DHT22;10414;52.074;5.126;2023-07-29T00:25:31;19.80;99.90
20512;DHT22;10414;52.074;5.126;2023-07-29T00:27:59;19.60;99.90
20512;DHT22;10414;52.074;5.126;2023-07-29T00:30:25;19.60;99.90
20512;DHT22;10414;52.074;5.126;2023-07-29T00:32:55;19.50;99.90
20512;DHT22;10414;52.074;5.126;2023-07-29T00:35:23;19.40;99.90
20512;DHT22;10414;52.074;5.126;2023-07-29T00:37:50;19.40;99.90
20512;DHT22;10414;52.074;5.126;2023-07-29T00:40:23;19.50;99.90
20512;DHT22;10414;52.074;5.126;2023-07-29T00:42:56;19.60;99.90
20512;DHT22;10414;52.074;5.126;2023-07-29T00:45:24;19.60;99.90
20512;DHT22;10414;52.074;5.126;2023-07-29T00:47:51;19.60;99.90
20512;DHT22;10414;52.074;5.126;2023-07-29T00:50:18;19.70;99.90
20512;DHT22;10414;52.074;5.126;2023-07-29T00:52:48;19.40;99.90
20512;DHT22;10414;52.074;5.126;2023-07-29T00:55:16;19.10;99.90
20512;DHT22;10414;52.074;5.126;2023-07-29T00:57:43;19.20;99.90
20512;DHT22;10414;52.074;5.126;2023-07-29T01:00:15;19.20;99.90
20512;DHT22;10414;52.074;5.126;2023-07-29T01:02:42;19.20;99.90
20512;DHT22;10414;52.074;5.126;2023-07-29T01:05:12;19.10;99.90
20512;DHT22;10414;52.074;5.126;2023-07-29T01:07:41;19.00;99.90
20512;DHT22;10414;52.074;5.126;2023-07-29T01:10:15;18.80;99.90
20512;DHT22;10414;52.074;5.126;2023-07-29T01:12:54;18.80;99.90
20512;DHT22;10414;52.074;5.126;2023-07-29T01:15:29;18.80;99.90
20512;DHT22;10414;52.074;5.126;2023-07-29T01:18:02;18.70;99.90
20512;DHT22;10414;52.074;5.126;2023-07-29T01:20:33;18.70;99.90
20512;DHT22;10414;52.074;5.126;2023-07-29T01:23:02;18.70;99.90
20512;DHT22;10414;52.074;5.126;2023-07-29T01:25:30;18.70;99.90
20512;DHT22;10414;52.074;5.126;2023-07-29T01:27:57;18.80;99.90
20512;DHT22;10414;52.074;5.126;2023-07-29T01:30:30;18.80;99.90
20512;DHT22;10414;52.074;5.126;2023-07-29T01:33:01;18.90;99.90
20512;DHT22;10414;52.074;5.126;2023-07-29T01:35:38;18.80;99.90
20512;DHT22;10414;52.074;5.126;2023-07-29T01:38:13;18.70;99.90
20512;DHT22;10414;52.074;5.126;2023-07-29T01:40:42;18.70;99.90
20512;DHT22;10414;52.074;5.126;2023-07-29T01:43:10;18.70;99.90
20512;DHT22;10414;52.074;5.126;2023-07-29T01:45:38;18.70;99.90
20512;DHT22;10414;52.074;5.126;2023-07-29T01:48:05;18.70;99.90
20512;DHT22;10414;52.074;5.126;2023-07-29T01:50:32;18.60;99.90
20512;DHT22;10414;52.074;5.126;2023-07-29T01:52:59;18.60;99.90
20512;DHT22;10414;52.074;5.126;2023-07-29T01:55:26;18.60;99.90
20512;DHT22;10414;52.074;5.126;2023-07-29T01:57:54;18.80;99.90
20512;DHT22;10414;52.074;5.126;2023-07-29T02:00:21;18.90;99.90
20512;DHT22;10414;52.074;5.126;2023-07-29T02:02:51;18.60;99.90
20512;DHT22;10414;52.074;5.126;2023-07-29T02:05:18;18.60;99.90
20512;DHT22;10414;52.074;5.126;2023-07-29T02:07:45;18.70;99.90
20512;DHT22;10414;52.074;5.126;2023-07-29T02:10:11;18.90;99.90
20512;DHT22;10414;52.074;5.126;2023-07-29T02:12:38;18.80;99.90
20512;DHT22;10414;52.074;5.126;2023-07-29T02:15:08;18.60;99.90
20512;DHT22;10414;52.074;5.126;2023-07-29T02:17:35;18.30;99.90
20512;DHT22;10414;52.074;5.126;2023-07-29T02:20:02;18.20;99.90
20512;DHT22;10414;52.074;5.126;2023-07-29T02:22:31;18.30;99.90
20512;DHT22;10414;52.074;5.126;2023-07-29T02:24:58;18.30;99.90
20512;DHT22;10414;52.074;5.126;2023-07-29T02:27:25;18.30;99.90
20512;DHT22;10414;52.074;5.126;2023-07-29T02:29:55;18.30;99.90
20512;DHT22;10414;52.074;5.126;2023-07-29T02:32:25;18.30;99.90
20512;DHT22;10414;52.074;5.126;2023-07-29T02:34:55;18.20;99.90
20512;DHT22;10414;52.074;5.126;2023-07-29T02:37:22;18.20;99.90
20512;DHT22;10414;52.074;5.126;2023-07-29T02:39:51;18.20;99.90
20512;DHT22;10414;52.074;5.126;2023-07-29T02:42:18;18.10;99.90
20512;DHT22;10414;52.074;5.126;2023-07-29T02:44:45;18.10;99.90
20512;DHT22;10414;52.074;5.126;2023-07-29T02:47:12;18.10;99.90
20512;DHT22;10414;52.074;5.126;2023-07-29T02:49:40;18.10;99.90
20512;DHT22;10414;52.074;5.126;2023-07-29T02:52:07;18.00;99.90
20512;DHT22;10414;52.074;5.126;2023-07-29T02:54:34;18.00;99.90
20512;DHT22;10414;52.074;5.126;2023-07-29T02:57:00;18.00;99.90
20512;DHT22;10414;52.074;5.126;2023-07-29T02:59:27;18.10;99.90
20512;DHT22;10414;52.074;5.126;2023-07-29T03:01:59;18.10;99.90
20512;DHT22;10414;52.074;5.126;2023-07-29T03:04:26;18.30;99.90
20512;DHT22;10414;52.074;5.126;2023-07-29T03:06:54;18.30;99.90
20512;DHT22;10414;52.074;5.126;2023-07-29T03:09:21;18.30;99.90
20512;DHT22;10414;52.074;5.126;2023-07-29T03:11:48;18.40;99.90
20512;DHT22;10414;52.074;5.126;2023-07-29T03:14:16;18.30;99.90
20512;DHT22;10414;52.074;5.126;2023-07-29T03:16:43;18.20;99.90
20512;DHT22;10414;52.074;5.126;2023-07-29T03:19:10;18.20;99.90
20512;DHT22;10414;52.074;5.126;2023-07-29T03:21:37;18.30;99.90
20512;DHT22;10414;52.074;5.126;2023-07-29T03:24:05;18.40;99.90
20512;DHT22;10414;52.074;5.126;2023-07-29T03:26:35;18.20;99.90
20512;DHT22;10414;52.074;5.126;2023-07-29T03:29:02;18.20;99.90
20512;DHT22;10414;52.074;5.126;2023-07-29T03:31:29;18.30;99.90
20512;DHT22;10414;52.074;5.126;2023-07-29T03:33:55;18.30;99.90
20512;DHT22;10414;52.074;5.126;2023-07-29T03:36:23;18.30;99.90
20512;DHT22;10414;52.074;5.126;2023-07-29T03:38:52;18.10;99.90
20512;DHT22;10414;52.074;5.126;2023-07-29T03:41:25;18.10;99.90
20512;DHT22;10414;52.074;5.126;2023-07-29T03:43:52;17.90;99.90
20512;DHT22;10414;52.074;5.126;2023-07-29T03:46:18;17.90;99.90
20512;DHT22;10414;52.074;5.126;2023-07-29T03:48:47;17.90;99.90
20512;DHT22;10414;52.074;5.126;2023-07-29T03:51:14;17.90;99.90
20512;DHT22;10414;52.074;5.126;2023-07-29T03:53:41;17.90;99.90
20512;DHT22;10414;52.074;5.126;2023-07-29T03:56:08;17.90;99.90
20512;DHT22;10414;52.074;5.126;2023-07-29T03:58:36;17.90;99.90
20512;DHT22;10414;52.074;5.126;2023-07-29T04:01:03;17.90;99.90
20512;DHT22;10414;52.074;5.126;2023-07-29T04:03:35;18.00;99.90
20512;DHT22;10414;52.074;5.126;2023-07-29T04:06:02;18.20;99.90
20512;DHT22;10414;52.074;5.126;2023-07-29T04:08:29;18.10;99.90
20512;DHT22;10414;52.074;5.126;2023-07-29T04:10:56;18.00;99.90
20512;DHT22;10414;52.074;5.126;2023-07-29T04:13:23;18.10;99.90
20512;DHT22;10414;52.074;5.126;2023-07-29T04:15:51;18.00;99.90
20512;DHT22;10414;52.074;5.126;2023-07-29T04:18:18;17.90;99.90
20512;DHT22;10414;52.074;5.126;2023-07-29T04:20:45;17.70;99.90
20512;DHT22;10414;52.074;5.126;2023-07-29T04:23:11;17.90;99.90
20512;DHT22;10414;52.074;5.126;2023-07-29T04:25:38;17.70;99.90
20512;DHT22;10414;52.074;5.126;2023-07-29T04:28:05;17.70;99.90
20512;DHT22;10414;52.074;5.126;2023-07-29T04:30:32;17.70;99.90
20512;DHT22;10414;52.074;5.126;2023-07-29T04:33:02;17.70;99.90
20512;DHT22;10414;52.074;5.126;2023-07-29T04:35:29;17.70;99.90
20512;DHT22;10414;52.074;5.126;2023-07-29T04:37:58;17.70;99.90
20512;DHT22;10414;52.074;5.126;2023-07-29T04:40:25;17.70;99.90
20512;DHT22;10414;52.074;5.126;2023-07-29T04:42:52;17.60;99.90
20512;DHT22;10414;52.074;5.126;2023-07-29T04:45:18;17.60;99.90
20512;DHT22;10414;52.074;5.126;2023-07-29T04:47:45;17.50;99.90
20512;DHT22;10414;52.074;5.126;2023-07-29T04:50:14;17.60;99.90
20512;DHT22;10414;52.074;5.126;2023-07-29T04:52:40;17.60;99.90
20512;DHT22;10414;52.074;5.126;2023-07-29T04:55:07;17.70;99.90
20512;DHT22;10414;52.074;5.126;2023-07-29T04:57:34;17.70;99.90
20512;DHT22;10414;52.074;5.126;2023-07-29T05:00:02;17.80;99.90
20512;DHT22;10414;52.074;5.126;2023-07-29T05:02:30;17.90;99.90
20512;DHT22;10414;52.074;5.126;2023-07-29T05:04:57;17.90;99.90
20512;DHT22;10414;52.074;5.126;2023-07-29T05:07:29;17.90;99.90
20512;DHT22;10414;52.074;5.126;2023-07-29T05:09:55;18.00;99.90
20512;DHT22;10414;52.074;5.126;2023-07-29T05:12:22;17.90;99.90
20512;DHT22;10414;52.074;5.126;2023-07-29T05:14:49;17.90;99.90
20512;DHT22;10414;52.074;5.126;2023-07-29T05:17:16;18.00;99.90
20512;DHT22;10414;52.074;5.126;2023-07-29T05:19:44;18.20;99.90
20512;DHT22;10414;52.074;5.126;2023-07-29T05:22:11;18.40;99.90
20512;DHT22;10414;52.074;5.126;2023-07-29T05:24:42;18.40;99.90
20512;DHT22;10414;52.074;5.126;2023-07-29T05:27:09;18.50;99.90
20512;DHT22;10414;52.074;5.126;2023-07-29T05:29:39;18.40;99.90
20512;DHT22;10414;52.074;5.126;2023-07-29T05:32:06;18.50;99.90
20512;DHT22;10414;52.074;5.126;2023-07-29T05:34:33;18.70;99.90
20512;DHT22;10414;52.074;5.126;2023-07-29T05:37:00;18.60;99.90
20512;DHT22;10414;52.074;5.126;2023-07-29T05:39:26;18.40;99.90
20512;DHT22;10414;52.074;5.126;2023-07-29T05:41:55;18.50;99.90
20512;DHT22;10414;52.074;5.126;2023-07-29T05:44:22;18.80;99.90
20512;DHT22;10414;52.074;5.126;2023-07-29T05:46:48;19.10;99.90
20512;DHT22;10414;52.074;5.126;2023-07-29T05:49:18;19.20;99.90
20512;DHT22;10414;52.074;5.126;2023-07-29T05:51:45;19.10;99.90
20512;DHT22;10414;52.074;5.126;2023-07-29T05:54:15;19.20;99.90
20512;DHT22;10414;52.074;5.126;2023-07-29T05:56:41;19.40;99.90
20512;DHT22;10414;52.074;5.126;2023-07-29T05:59:10;19.70;99.90
20512;DHT22;10414;52.074;5.126;2023-07-29T06:01:37;20.00;99.90
20512;DHT22;10414;52.074;5.126;2023-07-29T06:04:04;20.80;99.90
20512;DHT22;10414;52.074;5.126;2023-07-29T06:06:31;21.30;99.90
20512;DHT22;10414;52.074;5.126;2023-07-29T06:08:58;22.90;99.90
20512;DHT22;10414;52.074;5.126;2023-07-29T06:11:25;23.40;99.90
20512;DHT22;10414;52.074;5.126;2023-07-29T06:13:52;23.60;99.90
20512;DHT22;10414;52.074;5.126;2023-07-29T06:16:20;23.00;99.90
20512;DHT22;10414;52.074;5.126;2023-07-29T06:18:47;22.70;99.90
20512;DHT22;10414;52.074;5.126;2023-07-29T06:21:15;22.20;99.90
20512;DHT22;10414;52.074;5.126;2023-07-29T06:23:44;21.60;99.90
20512;DHT22;10414;52.074;5.126;2023-07-29T06:26:11;21.40;99.90
20512;DHT22;10414;52.074;5.126;2023-07-29T06:28:38;21.20;99.90
20512;DHT22;10414;52.074;5.126;2023-07-29T06:31:09;21.40;99.90
20512;DHT22;10414;52.074;5.126;2023-07-29T06:33:37;21.70;99.90
20512;DHT22;10414;52.074;5.126;2023-07-29T06:36:04;22.80;99.90
20512;DHT22;10414;52.074;5.126;2023-07-29T06:38:31;23.10;99.90
20512;DHT22;10414;52.074;5.126;2023-07-29T06:40:58;22.40;99.90
20512;DHT22;10414;52.074;5.126;2023-07-29T06:43:25;22.20;99.90
20512;DHT22;10414;52.074;5.126;2023-07-29T06:45:54;22.30;99.90
20512;DHT22;10414;52.074;5.126;2023-07-29T06:48:21;21.40;99.90
20512;DHT22;10414;52.074;5.126;2023-07-29T06:50:50;21.40;99.90
20512;DHT22;10414;52.074;5.126;2023-07-29T06:53:17;21.40;99.90
20512;DHT22;10414;52.074;5.126;2023-07-29T06:55:44;21.60;99.90
20512;DHT22;10414;52.074;5.126;2023-07-29T06:58:11;21.50;99.90
20512;DHT22;10414;52.074;5.126;2023-07-29T07:00:38;21.30;99.90
20512;DHT22;10414;52.074;5.126;2023-07-29T07:03:05;20.70;99.90
20512;DHT22;10414;52.074;5.126;2023-07-29T07:05:32;20.90;99.90
20512;DHT22;10414;52.074;5.126;2023-07-29T07:08:00;21.00;99.90
20512;DHT22;10414;52.074;5.126;2023-07-29T07:10:29;20.60;99.90
20512;DHT22;10414;52.074;5.126;2023-07-29T07:12:56;20.40;99.90
20512;DHT22;10414;52.074;5.126;2023-07-29T07:15:23;20.20;99.90
20512;DHT22;10414;52.074;5.126;2023-07-29T07:17:51;20.40;99.90
20512;DHT22;10414;52.074;5.126;2023-07-29T07:20:18;20.60;99.90
20512;DHT22;10414;52.074;5.126;2023-07-29T07:22:44;21.00;99.90
20512;DHT22;10414;52.074;5.126;2023-07-29T07:25:14;21.90;99.90
20512;DHT22;10414;52.074;5.126;2023-07-29T07:27:41;22.90;99.90
20512;DHT22;10414;52.074;5.126;2023-07-29T07:30:09;23.80;99.90
20512;DHT22;10414;52.074;5.126;2023-07-29T07:32:35;24.30;99.90
20512;DHT22;10414;52.074;5.126;2023-07-29T07:35:04;23.70;99.90
20512;DHT22;10414;52.074;5.126;2023-07-29T07:37:30;23.80;99.90
20512;DHT22;10414;52.074;5.126;2023-07-29T07:39:59;24.00;99.90
20512;DHT22;10414;52.074;5.126;2023-07-29T07:42:27;24.20;99.90
20512;DHT22;10414;52.074;5.126;2023-07-29T07:44:55;24.20;99.90
20512;DHT22;10414;52.074;5.126;2023-07-29T07:47:22;25.60;99.90
20512;DHT22;10414;52.074;5.126;2023-07-29T07:49:49;26.30;99.90
20512;DHT22;10414;52.074;5.126;2023-07-29T07:52:16;25.70;99.90
20512;DHT22;10414;52.074;5.126;2023-07-29T07:54:43;24.70;99.90
20512;DHT22;10414;52.074;5.126;2023-07-29T07:57:10;24.20;99.90
20512;DHT22;10414;52.074;5.126;2023-07-29T07:59:39;23.80;99.90
20512;DHT22;10414;52.074;5.126;2023-07-29T08:02:07;23.50;99.90
20512;DHT22;10414;52.074;5.126;2023-07-29T08:04:34;23.60;99.90
20512;DHT22;10414;52.074;5.126;2023-07-29T08:07:00;24.00;99.90
20512;DHT22;10414;52.074;5.126;2023-07-29T08:09:27;23.60;99.90
20512;DHT22;10414;52.074;5.126;2023-07-29T08:11:56;23.10;99.90
20512;DHT22;10414;52.074;5.126;2023-07-29T08:14:23;22.80;99.90
20512;DHT22;10414;52.074;5.126;2023-07-29T08:16:54;22.30;99.90
20512;DHT22;10414;52.074;5.126;2023-07-29T08:19:22;21.90;99.90
20512;DHT22;10414;52.074;5.126;2023-07-29T08:21:48;21.50;99.90
20512;DHT22;10414;52.074;5.126;2023-07-29T08:24:17;21.20;99.90
20512;DHT22;10414;52.074;5.126;2023-07-29T08:26:44;21.40;99.90
20512;DHT22;10414;52.074;5.126;2023-07-29T08:29:11;21.60;99.90
20512;DHT22;10414;52.074;5.126;2023-07-29T08:31:39;21.60;99.90
20512;DHT22;10414;52.074;5.126;2023-07-29T08:34:07;21.60;99.90
20512;DHT22;10414;52.074;5.126;2023-07-29T08:36:34;21.60;99.90
20512;DHT22;10414;52.074;5.126;2023-07-29T08:39:10;21.20;99.90
20512;DHT22;10414;52.074;5.126;2023-07-29T08:41:41;21.20;99.90
20512;DHT22;10414;52.074;5.126;2023-07-29T08:44:12;21.10;99.90
20512;DHT22;10414;52.074;5.126;2023-07-29T08:46:45;21.10;99.90
20512;DHT22;10414;52.074;5.126;2023-07-29T08:49:19;22.70;99.90
20512;DHT22;10414;52.074;5.126;2023-07-29T08:51:49;25.00;99.90
20512;DHT22;10414;52.074;5.126;2023-07-29T08:54:16;25.30;99.90
20512;DHT22;10414;52.074;5.126;2023-07-29T08:56:49;24.60;99.90
20512;DHT22;10414;52.074;5.126;2023-07-29T08:59:17;24.30;99.90
20512;DHT22;10414;52.074;5.126;2023-07-29T09:01:44;24.20;99.90
20512;DHT22;10414;52.074;5.126;2023-07-29T09:04:12;23.10;99.90
20512;DHT22;10414;52.074;5.126;2023-07-29T09:06:44;22.90;99.90
20512;DHT22;10414;52.074;5.126;2023-07-29T09:09:12;23.20;99.90
20512;DHT22;10414;52.074;5.126;2023-07-29T09:11:39;23.20;99.90
20512;DHT22;10414;52.074;5.126;2023-07-29T09:14:06;22.50;99.90
20512;DHT22;10414;52.074;5.126;2023-07-29T09:16:33;21.90;99.90
20512;DHT22;10414;52.074;5.126;2023-07-29T09:19:03;22.00;99.90
20512;DHT22;10414;52.074;5.126;2023-07-29T09:21:31;22.60;99.90
20512;DHT22;10414;52.074;5.126;2023-07-29T09:24:03;22.90;99.90
20512;DHT22;10414;52.074;5.126;2023-07-29T09:26:30;23.00;99.90
20512;DHT22;10414;52.074;5.126;2023-07-29T09:29:00;22.60;99.90
20512;DHT22;10414;52.074;5.126;2023-07-29T09:31:28;21.70;99.90
20512;DHT22;10414;52.074;5.126;2023-07-29T09:33:58;21.70;99.90
20512;DHT22;10414;52.074;5.126;2023-07-29T09:36:25;21.60;99.90
20512;DHT22;10414;52.074;5.126;2023-07-29T09:38:53;20.80;99.90
20512;DHT22;10414;52.074;5.126;2023-07-29T09:41:24;20.60;99.90
20512;DHT22;10414;52.074;5.126;2023-07-29T09:43:56;20.50;99.90
20512;DHT22;10414;52.074;5.126;2023-07-29T09:46:25;20.90;99.90
20512;DHT22;10414;52.074;5.126;2023-07-29T09:48:57;21.50;99.90
20512;DHT22;10414;52.074;5.126;2023-07-29T09:51:24;22.40;99.90
20512;DHT22;10414;52.074;5.126;2023-07-29T09:53:51;22.60;99.90
20512;DHT22;10414;52.074;5.126;2023-07-29T09:56:23;22.80;99.90
20512;DHT22;10414;52.074;5.126;2023-07-29T09:58:52;22.90;99.90
20512;DHT22;10414;52.074;5.126;2023-07-29T10:01:21;22.70;99.90
20512;DHT22;10414;52.074;5.126;2023-07-29T10:03:48;22.60;99.90
20512;DHT22;10414;52.074;5.126;2023-07-29T10:06:17;22.20;99.90
20512;DHT22;10414;52.074;5.126;2023-07-29T10:08:45;22.50;99.90
20512;DHT22;10414;52.074;5.126;2023-07-29T10:11:14;22.80;99.90
20512;DHT22;10414;52.074;5.126;2023-07-29T10:13:42;22.40;99.90
20512;DHT22;10414;52.074;5.126;2023-07-29T10:16:11;22.80;99.90
20512;DHT22;10414;52.074;5.126;2023-07-29T10:18:42;22.90;99.90
20512;DHT22;10414;52.074;5.126;2023-07-29T10:21:12;22.90;99.90
20512;DHT22;10414;52.074;5.126;2023-07-29T10:23:43;23.30;99.90
20512;DHT22;10414;52.074;5.126;2023-07-29T10:26:14;23.30;99.90
20512;DHT22;10414;52.074;5.126;2023-07-29T10:28:47;23.20;99.90
20512;DHT22;10414;52.074;5.126;2023-07-29T10:31:16;22.90;99.90
20512;DHT22;10414;52.074;5.126;2023-07-29T10:33:44;22.80;99.90
20512;DHT22;10414;52.074;5.126;2023-07-29T10:36:12;21.70;99.90
20512;DHT22;10414;52.074;5.126;2023-07-29T10:38:41;21.10;99.90
20512;DHT22;10414;52.074;5.126;2023-07-29T10:41:08;20.80;99.90
20512;DHT22;10414;52.074;5.126;2023-07-29T10:43:36;21.00;99.90
20512;DHT22;10414;52.074;5.126;2023-07-29T10:46:26;21.30;99.90
20512;DHT22;10414;52.074;5.126;2023-07-29T10:48:54;22.10;99.90
20512;DHT22;10414;52.074;5.126;2023-07-29T10:51:28;22.60;99.90
20512;DHT22;10414;52.074;5.126;2023-07-29T10:53:57;22.40;99.90
20512;DHT22;10414;52.074;5.126;2023-07-29T10:56:28;21.90;99.90
20512;DHT22;10414;52.074;5.126;2023-07-29T10:59:00;22.00;99.90
20512;DHT22;10414;52.074;5.126;2023-07-29T11:01:30;21.90;99.90
20512;DHT22;10414;52.074;5.126;2023-07-29T11:04:26;21.70;99.90
20512;DHT22;10414;52.074;5.126;2023-07-29T11:07:19;21.70;99.90
20512;DHT22;10414;52.074;5.126;2023-07-29T11:10:02;21.90;99.90
20512;DHT22;10414;52.074;5.126;2023-07-29T11:12:44;21.60;99.90
20512;DHT22;10414;52.074;5.126;2023-07-29T11:15:15;21.30;99.90
20512;DHT22;10414;52.074;5.126;2023-07-29T11:17:45;21.20;99.90
20512;DHT22;10414;52.074;5.126;2023-07-29T11:20:15;21.20;99.90
20512;DHT22;10414;52.074;5.126;2023-07-29T11:22:42;20.90;99.90
20512;DHT22;10414;52.074;5.126;2023-07-29T11:25:10;20.80;99.90
20512;DHT22;10414;52.074;5.126;2023-07-29T11:27:39;20.60;99.90
20512;DHT22;10414;52.074;5.126;2023-07-29T11:30:07;20.50;99.90
20512;DHT22;10414;52.074;5.126;2023-07-29T11:32:35;20.50;99.90
20512;DHT22;10414;52.074;5.126;2023-07-29T11:35:09;20.80;99.90
20512;DHT22;10414;52.074;5.126;2023-07-29T11:37:37;21.10;99.90
20512;DHT22;10414;52.074;5.126;2023-07-29T11:40:05;21.30;99.90
20512;DHT22;10414;52.074;5.126;2023-07-29T11:42:32;21.70;99.90
20512;DHT22;10414;52.074;5.126;2023-07-29T11:45:00;22.40;99.90
20512;DHT22;10414;52.074;5.126;2023-07-29T11:47:37;23.00;99.90
20512;DHT22;10414;52.074;5.126;2023-07-29T11:50:09;23.90;99.90
20512;DHT22;10414;52.074;5.126;2023-07-29T11:52:37;25.30;99.90
20512;DHT22;10414;52.074;5.126;2023-07-29T11:55:05;25.50;99.90
20512;DHT22;10414;52.074;5.126;2023-07-29T11:57:34;25.50;99.90
20512;DHT22;10414;52.074;5.126;2023-07-29T12:00:03;25.40;99.90
20512;DHT22;10414;52.074;5.126;2023-07-29T12:02:32;24.90;99.90
20512;DHT22;10414;52.074;5.126;2023-07-29T12:04:59;24.90;99.90
20512;DHT22;10414;52.074;5.126;2023-07-29T12:07:29;24.20;99.90
20512;DHT22;10414;52.074;5.126;2023-07-29T12:09:56;24.10;99.90
20512;DHT22;10414;52.074;5.126;2023-07-29T12:12:25;23.90;99.90
20512;DHT22;10414;52.074;5.126;2023-07-29T12:14:54;23.90;99.90
20512;DHT22;10414;52.074;5.126;2023-07-29T12:17:23;23.60;99.90
20512;DHT22;10414;52.074;5.126;2023-07-29T12:19:54;23.50;99.90
20512;DHT22;10414;52.074;5.126;2023-07-29T12:22:21;23.30;99.90
20512;DHT22;10414;52.074;5.126;2023-07-29T12:24:51;23.40;99.90
20512;DHT22;10414;52.074;5.126;2023-07-29T12:27:22;23.40;99.90
20512;DHT22;10414;52.074;5.126;2023-07-29T12:29:51;23.70;99.90
20512;DHT22;10414;52.074;5.126;2023-07-29T12:32:18;23.60;99.90
20512;DHT22;10414;52.074;5.126;2023-07-29T12:34:45;23.70;99.90
20512;DHT22;10414;52.074;5.126;2023-07-29T12:37:12;23.70;99.90
20512;DHT22;10414;52.074;5.126;2023-07-29T12:39:40;23.80;99.90
20512;DHT22;10414;52.074;5.126;2023-07-29T12:42:09;24.30;99.90
20512;DHT22;10414;52.074;5.126;2023-07-29T12:44:37;23.90;99.90
20512;DHT22;10414;52.074;5.126;2023-07-29T12:47:06;24.00;99.90
20512;DHT22;10414;52.074;5.126;2023-07-29T12:49:34;23.70;99.90
20512;DHT22;10414;52.074;5.126;2023-07-29T12:52:01;23.70;99.90
20512;DHT22;10414;52.074;5.126;2023-07-29T12:54:28;23.60;99.90
20512;DHT22;10414;52.074;5.126;2023-07-29T12:56:55;23.60;99.90
20512;DHT22;10414;52.074;5.126;2023-07-29T12:59:23;23.70;99.90
20512;DHT22;10414;52.074;5.126;2023-07-29T13:01:50;23.80;99.90
20512;DHT22;10414;52.074;5.126;2023-07-29T13:04:17;23.90;99.90
20512;DHT22;10414;52.074;5.126;2023-07-29T13:06:43;23.50;99.90
20512;DHT22;10414;52.074;5.126;2023-07-29T13:09:10;23.30;99.90
20512;DHT22;10414;52.074;5.126;2023-07-29T13:11:40;23.50;99.90
20512;DHT22;10414;52.074;5.126;2023-07-29T13:14:07;23.80;99.90
20512;DHT22;10414;52.074;5.126;2023-07-29T13:16:35;23.90;99.90
20512;DHT22;10414;52.074;5.126;2023-07-29T13:19:02;24.20;99.90
20512;DHT22;10414;52.074;5.126;2023-07-29T13:21:32;24.50;99.90
20512;DHT22;10414;52.074;5.126;2023-07-29T13:23:59;24.80;99.90
20512;DHT22;10414;52.074;5.126;2023-07-29T13:26:26;24.50;99.90
20512;DHT22;10414;52.074;5.126;2023-07-29T13:28:56;24.50;99.90
20512;DHT22;10414;52.074;5.126;2023-07-29T13:31:22;24.30;99.90
20512;DHT22;10414;52.074;5.126;2023-07-29T13:33:52;24.00;99.90
20512;DHT22;10414;52.074;5.126;2023-07-29T13:36:22;24.30;99.90
20512;DHT22;10414;52.074;5.126;2023-07-29T13:38:52;24.20;99.90
20512;DHT22;10414;52.074;5.126;2023-07-29T13:41:19;24.40;99.90
20512;DHT22;10414;52.074;5.126;2023-07-29T13:43:48;24.60;99.90
20512;DHT22;10414;52.074;5.126;2023-07-29T13:46:17;24.70;99.90
20512;DHT22;10414;52.074;5.126;2023-07-29T13:48:46;24.40;99.90
20512;DHT22;10414;52.074;5.126;2023-07-29T13:51:14;24.80;99.90
20512;DHT22;10414;52.074;5.126;2023-07-29T13:53:41;24.80;99.90
20512;DHT22;10414;52.074;5.126;2023-07-29T13:56:08;24.30;99.90
20512;DHT22;10414;52.074;5.126;2023-07-29T13:58:37;24.10;99.90
20512;DHT22;10414;52.074;5.126;2023-07-29T14:01:15;24.30;99.90
20512;DHT22;10414;52.074;5.126;2023-07-29T14:03:41;24.80;99.90
20512;DHT22;10414;52.074;5.126;2023-07-29T14:06:10;24.80;99.90
20512;DHT22;10414;52.074;5.126;2023-07-29T14:08:38;24.70;99.90
20512;DHT22;10414;52.074;5.126;2023-07-29T14:11:06;24.30;99.90
20512;DHT22;10414;52.074;5.126;2023-07-29T14:13:33;24.20;99.90
20512;DHT22;10414;52.074;5.126;2023-07-29T14:16:01;24.40;99.90
20512;DHT22;10414;52.074;5.126;2023-07-29T14:18:28;24.50;99.90
20512;DHT22;10414;52.074;5.126;2023-07-29T14:20:54;24.80;99.90
20512;DHT22;10414;52.074;5.126;2023-07-29T14:23:21;25.00;99.90
20512;DHT22;10414;52.074;5.126;2023-07-29T14:25:49;25.10;99.90
20512;DHT22;10414;52.074;5.126;2023-07-29T14:28:19;25.20;99.90
20512;DHT22;10414;52.074;5.126;2023-07-29T14:30:46;25.20;99.90
20512;DHT22;10414;52.074;5.126;2023-07-29T14:33:13;25.20;99.90
20512;DHT22;10414;52.074;5.126;2023-07-29T14:35:40;24.60;99.90
20512;DHT22;10414;52.074;5.126;2023-07-29T14:38:07;24.40;99.90
20512;DHT22;10414;52.074;5.126;2023-07-29T14:40:34;24.40;99.90
20512;DHT22;10414;52.074;5.126;2023-07-29T14:43:04;24.60;99.90
20512;DHT22;10414;52.074;5.126;2023-07-29T14:45:31;24.60;99.90
20512;DHT22;10414;52.074;5.126;2023-07-29T14:47:58;24.60;99.90
20512;DHT22;10414;52.074;5.126;2023-07-29T14:50:25;25.10;99.90
20512;DHT22;10414;52.074;5.126;2023-07-29T14:52:52;25.10;99.90
20512;DHT22;10414;52.074;5.126;2023-07-29T14:55:19;24.30;99.90
20512;DHT22;10414;52.074;5.126;2023-07-29T14:57:46;24.30;99.90
20512;DHT22;10414;52.074;5.126;2023-07-29T15:00:14;24.60;99.90
20512;DHT22;10414;52.074;5.126;2023-07-29T15:02:41;24.80;99.90
20512;DHT22;10414;52.074;5.126;2023-07-29T15:05:08;25.10;99.90
20512;DHT22;10414;52.074;5.126;2023-07-29T15:07:36;24.80;99.90
20512;DHT22;10414;52.074;5.126;2023-07-29T15:10:04;24.50;99.90
20512;DHT22;10414;52.074;5.126;2023-07-29T15:12:33;24.50;99.90
20512;DHT22;10414;52.074;5.126;2023-07-29T15:15:00;24.40;99.90
20512;DHT22;10414;52.074;5.126;2023-07-29T15:17:29;24.30;99.90
20512;DHT22;10414;52.074;5.126;2023-07-29T15:19:56;24.30;99.90
20512;DHT22;10414;52.074;5.126;2023-07-29T15:22:30;24.40;99.90
20512;DHT22;10414;52.074;5.126;2023-07-29T15:24:59;24.40;99.90
20512;DHT22;10414;52.074;5.126;2023-07-29T15:27:28;24.40;99.90
20512;DHT22;10414;52.074;5.126;2023-07-29T15:29:56;24.50;99.90
20512;DHT22;10414;52.074;5.126;2023-07-29T15:32:22;24.30;99.90
20512;DHT22;10414;52.074;5.126;2023-07-29T15:34:56;24.60;99.90
20512;DHT22;10414;52.074;5.126;2023-07-29T15:37:23;24.80;99.90